Sierra Vista, Arizona
Current Conditions -  °F | °C
As of 7:55 AM on Friday 24 Oct 2014 (Local Time) from KFHU Reporting Station
Clear Clear  
Wind Chill: 64°   Ceiling: Unl
Heat Index: 64°   Visibility: 10mi
Dew Point: 45°   Wind: 0mph
Humidity: 49%   Direction: NA
Pressure: 30.26"   Gusts: NA
Location:  31.57°N, 110.32°W
Report Text: KFHU 241455Z 00000KT 10SM CLR 18/07 A3026 RMK SLP201 52015
Loading
Personal Weather Stations






























Interactive Weather Map
Tropical Storm Tracking
New forecast layout! Learn more

10-Day Weather Forecast

Advertisements
Track Severe Weather on mobile